Skip Navigation Links Skip Navigation Links

Current Weather

Brookneal/Campbell County, Brookneal, Va.

For information only: do not use for flight planning or navigation.
Latest weather
Observation time Thursday, December 13, 2018 12:55 PM EST
Local time Thursday, December 13, 2018 1:14 PM EST
Flight conditions Visual Meteorological Conditions
Winds
Wind speed calm
Visibility 10 mi.
Sky condition
Ceiling 6,000 ft. overcast
Cloud layer overcast 6,000 ft.
Temperature 43°F
Dewpoint 30°F
Altimeter 30.27 in.Hg
Derived measurements
Relative humidity 60%
Wind chill 43°F
Density altitude -764 ft.
Climate data
Remarks
Fully automated report.
Automated weather observing station without precipitation discriminator.
METAR K0V4 131755Z AUTO 00000KT 10SM OVC060 06/M01 A3027 RMK AO1 T00631010 10063 20007

Settings

Location code

InnerDrive.Weather 4.0.6770.0 Release CLR 4.0.30319.42000
Copyright ©2018 Inner Drive Technology. All rights reserved. Portions Copyright ©1986-2018 David Braverman.

Find weather

Site navigation


Skip Navigation Links

Place info

Page info

PayPal - The safer, easier way to pay online!

Return home.

Copyright ©2018 Inner Drive Technology. Purveyors of fine, hand-crafted computer software. Page printed 2018-12-13T18:14:36 UTC.